createdAt,value
2022-07-25T00:01:08.713Z,12.77
2022-07-25T00:03:40.555Z,14.82
2022-07-25T00:06:17.808Z,13.65
2022-07-25T00:08:49.423Z,13.30
2022-07-25T00:11:19.388Z,13.68
2022-07-25T00:13:49.851Z,14.05
2022-07-25T00:16:20.397Z,12.98
2022-07-25T00:18:50.560Z,13.18
2022-07-25T00:21:20.526Z,12.77
2022-07-25T00:23:51.942Z,11.60
2022-07-25T00:26:22.009Z,12.07
2022-07-25T00:28:52.248Z,12.45
2022-07-25T00:31:22.311Z,12.48
2022-07-25T00:33:52.301Z,11.52
2022-07-25T00:36:22.530Z,11.45
2022-07-25T00:38:53.926Z,13.48
2022-07-25T00:41:24.050Z,12.60
2022-07-25T00:43:54.129Z,13.52
2022-07-25T00:46:24.532Z,14.10
2022-07-25T00:48:54.509Z,13.38
2022-07-25T00:51:24.639Z,13.10
2022-07-25T00:53:57.040Z,13.82
2022-07-25T00:56:27.623Z,13.80
2022-07-25T00:58:57.762Z,15.05
2022-07-25T01:01:27.875Z,15.10
2022-07-25T01:03:58.114Z,15.13
2022-07-25T01:06:28.606Z,15.95
2022-07-25T01:09:00.307Z,13.77
2022-07-25T01:11:30.271Z,15.55
2022-07-25T01:14:00.776Z,14.68
2022-07-25T01:16:31.196Z,13.68
2022-07-25T01:19:02.334Z,15.52
2022-07-25T01:21:33.693Z,15.05
2022-07-25T01:24:03.983Z,15.50
2022-07-25T01:26:34.345Z,15.75
2022-07-25T01:29:04.470Z,14.70
2022-07-25T01:31:34.487Z,14.43
2022-07-25T01:34:04.779Z,15.18
2022-07-25T01:36:36.636Z,14.40
2022-07-25T01:39:06.698Z,14.43
2022-07-25T01:41:36.685Z,14.45
2022-07-25T01:44:07.163Z,13.55
2022-07-25T01:46:38.514Z,15.05
2022-07-25T01:49:08.625Z,15.02
2022-07-25T01:51:40.005Z,14.35
2022-07-25T01:54:10.486Z,13.73
2022-07-25T01:56:47.089Z,15.55
2022-07-25T01:59:18.458Z,15.43
2022-07-25T02:01:48.570Z,13.60
2022-07-25T02:04:18.593Z,16.95
2022-07-25T02:06:50.122Z,15.43
2022-07-25T02:09:19.964Z,16.23
2022-07-25T02:11:50.593Z,19.20
2022-07-25T02:14:20.888Z,23.63
2022-07-25T02:16:51.379Z,20.05
2022-07-25T02:19:21.331Z,25.23
2022-07-25T02:21:52.834Z,31.05
2022-07-25T02:24:22.822Z,29.52
2022-07-25T02:26:53.013Z,25.50
2022-07-25T02:29:23.079Z,20.40
2022-07-25T02:31:53.197Z,23.23
2022-07-25T02:34:23.163Z,20.80
2022-07-25T02:36:54.530Z,20.05
2022-07-25T02:39:25.438Z,20.20
2022-07-25T02:41:55.387Z,19.80
2022-07-25T02:44:25.563Z,18.05
2022-07-25T02:46:55.497Z,19.23
2022-07-25T02:49:25.468Z,18.90
2022-07-25T02:51:57.676Z,17.95
2022-07-25T02:54:27.803Z,17.23
2022-07-25T02:56:57.802Z,18.02
2022-07-25T02:59:32.386Z,17.02
2022-07-25T03:02:02.430Z,17.50
2022-07-25T03:04:32.422Z,15.60
2022-07-25T03:07:03.840Z,18.17
2022-07-25T03:09:33.780Z,15.50
2022-07-25T03:12:04.694Z,17.77
2022-07-25T03:14:35.181Z,18.08
2022-07-25T03:17:05.410Z,17.00
2022-07-25T03:19:35.518Z,19.70
2022-07-25T03:22:06.813Z,18.40
2022-07-25T03:24:36.816Z,18.73
2022-07-25T03:27:06.955Z,19.25
2022-07-25T03:29:37.035Z,19.13
2022-07-25T03:32:08.219Z,18.27
2022-07-25T03:34:38.765Z,17.30
2022-07-25T03:37:10.077Z,17.45
2022-07-25T03:39:40.954Z,18.30
2022-07-25T03:42:11.815Z,17.95
2022-07-25T03:44:41.707Z,17.90
2022-07-25T03:47:11.672Z,16.85
2022-07-25T03:49:50.672Z,16.60
2022-07-25T03:52:21.959Z,17.65
2022-07-25T03:54:51.875Z,17.58
2022-07-25T03:57:21.858Z,18.55
2022-07-25T03:59:51.713Z,19.42
2022-07-25T04:02:21.666Z,18.80
2022-07-25T04:04:51.753Z,18.80
2022-07-25T04:07:23.244Z,18.10
2022-07-25T04:09:53.180Z,19.08
2022-07-25T04:12:23.911Z,18.65
2022-07-25T04:14:54.275Z,18.45
2022-07-25T04:17:25.296Z,17.52
2022-07-25T04:19:55.772Z,16.90
2022-07-25T04:22:28.097Z,17.08
2022-07-25T04:24:57.992Z,17.48
2022-07-25T04:27:28.076Z,18.85
2022-07-25T04:29:58.977Z,17.38
2022-07-25T04:32:29.055Z,18.67
2022-07-25T04:34:58.925Z,18.92
2022-07-25T04:37:30.611Z,18.05
2022-07-25T04:40:00.441Z,18.63
2022-07-25T04:42:30.582Z,18.90
2022-07-25T04:45:00.524Z,18.63
2022-07-25T04:47:30.578Z,19.23
2022-07-25T04:50:01.286Z,19.55
2022-07-25T04:52:32.601Z,19.52
2022-07-25T04:55:04.280Z,21.23
2022-07-25T04:57:34.498Z,19.95
2022-07-25T05:00:05.350Z,20.25
2022-07-25T05:02:36.346Z,20.35
2022-07-25T05:05:07.167Z,19.52
2022-07-25T05:07:38.711Z,19.08
2022-07-25T05:10:09.291Z,19.42
2022-07-25T05:12:39.686Z,18.17
2022-07-25T05:15:11.267Z,18.52
2022-07-25T05:17:41.308Z,18.27
2022-07-25T05:20:13.779Z,17.80
2022-07-25T05:22:45.225Z,18.35
2022-07-25T05:25:15.216Z,17.23
2022-07-25T05:27:45.562Z,16.67
2022-07-25T05:30:16.368Z,16.15
2022-07-25T05:32:46.303Z,15.18
2022-07-25T05:35:17.430Z,16.40
2022-07-25T05:37:49.822Z,16.67
2022-07-25T05:40:19.847Z,15.63
2022-07-25T05:42:49.787Z,16.02
2022-07-25T05:45:19.735Z,14.25
2022-07-25T05:47:49.577Z,16.00
2022-07-25T05:50:19.656Z,15.55
2022-07-25T05:52:50.963Z,15.23
2022-07-25T05:55:21.106Z,14.35
2022-07-25T05:57:51.090Z,12.70
2022-07-25T06:00:21.179Z,12.23
2022-07-25T06:02:51.191Z,12.57
2022-07-25T06:05:22.451Z,13.13
2022-07-25T06:07:53.905Z,14.05
2022-07-25T06:10:24.063Z,14.23
2022-07-25T06:12:54.283Z,14.13
2022-07-25T06:15:26.601Z,12.73
2022-07-25T06:17:57.673Z,14.35
2022-07-25T06:20:29.664Z,14.10
2022-07-25T06:23:03.904Z,14.25
2022-07-25T06:25:34.411Z,14.52
2022-07-25T06:28:04.873Z,15.93
2022-07-25T06:30:34.883Z,17.33
2022-07-25T06:33:04.938Z,15.32
2022-07-25T06:35:36.801Z,16.45
2022-07-25T06:38:10.337Z,17.05
2022-07-25T06:43:09.887Z,15.82
2022-07-25T06:45:39.831Z,17.08
2022-07-25T06:48:11.088Z,15.10
2022-07-25T06:50:41.291Z,17.70
2022-07-25T06:53:12.680Z,17.85
2022-07-25T06:55:42.895Z,16.30
2022-07-25T06:58:13.042Z,17.65
2022-07-25T07:00:43.230Z,16.88
2022-07-25T07:03:13.532Z,15.45
2022-07-25T07:05:43.422Z,16.40
2022-07-25T07:08:15.264Z,18.27
2022-07-25T07:10:45.191Z,18.23
2022-07-25T07:13:23.874Z,21.88
2022-07-25T07:15:55.905Z,20.95
2022-07-25T07:18:25.988Z,19.55
2022-07-25T07:20:55.857Z,16.25
2022-07-25T07:23:27.390Z,18.10
2022-07-25T07:25:59.131Z,19.48
2022-07-25T07:28:29.308Z,18.35
2022-07-25T07:31:15.836Z,19.08
2022-07-25T07:33:47.000Z,20.20
2022-07-25T07:36:16.919Z,19.60
2022-07-25T07:38:50.178Z,16.73
2022-07-25T07:41:20.490Z,19.48
2022-07-25T07:43:50.614Z,18.75
2022-07-25T07:46:20.670Z,16.90
2022-07-25T07:48:50.669Z,19.08
2022-07-25T07:51:21.140Z,16.77
2022-07-25T07:54:09.875Z,17.83
2022-07-25T07:56:39.796Z,17.08
2022-07-25T07:59:10.547Z,17.77
2022-07-25T08:01:40.828Z,16.45
2022-07-25T08:04:11.454Z,16.98
2022-07-25T08:06:43.247Z,18.52
2022-07-25T08:09:14.719Z,18.15
2022-07-25T08:11:45.387Z,18.20
2022-07-25T08:14:15.905Z,19.42
2022-07-25T08:16:45.924Z,17.60
2022-07-25T08:19:16.037Z,21.75
2022-07-25T08:21:47.144Z,22.10
2022-07-25T08:24:18.873Z,21.52
2022-07-25T08:26:48.807Z,27.02
2022-07-25T08:29:20.668Z,19.90
2022-07-25T08:31:52.911Z,18.33
2022-07-25T08:34:22.937Z,19.48
2022-07-25T08:36:52.789Z,17.92
2022-07-25T08:39:24.267Z,17.40
2022-07-25T08:41:54.401Z,19.77
2022-07-25T08:44:31.068Z,17.90
2022-07-25T08:47:01.965Z,18.48
2022-07-25T08:49:32.064Z,18.40
2022-07-25T08:52:03.837Z,29.33
2022-07-25T08:54:35.200Z,32.20
2022-07-25T08:57:05.544Z,20.15
2022-07-25T08:59:35.513Z,18.73
2022-07-25T09:02:08.956Z,18.30
2022-07-25T09:07:08.931Z,18.30
2022-07-25T09:09:40.578Z,17.15
2022-07-25T09:12:11.074Z,18.15
2022-07-25T09:14:45.460Z,16.02
2022-07-25T09:17:21.938Z,16.70
2022-07-25T09:19:54.715Z,17.42
2022-07-25T09:22:24.890Z,16.60
2022-07-25T09:24:56.457Z,17.05
2022-07-25T09:27:26.638Z,16.38
2022-07-25T09:29:57.083Z,16.38
2022-07-25T09:32:26.999Z,16.70
2022-07-25T09:34:56.893Z,16.80
2022-07-25T09:37:27.964Z,17.05
2022-07-25T09:39:59.538Z,17.17
2022-07-25T09:42:32.342Z,17.60
2022-07-25T09:45:11.502Z,16.70
2022-07-25T09:47:52.678Z,16.98
2022-07-25T09:50:24.368Z,19.08
2022-07-25T09:52:56.664Z,16.98
2022-07-25T09:55:28.106Z,15.70
2022-07-25T09:57:58.436Z,16.08
2022-07-25T10:00:30.328Z,15.77
2022-07-25T10:03:13.057Z,17.13
2022-07-25T10:05:52.308Z,18.23
2022-07-25T10:08:23.571Z,16.55
2022-07-25T10:10:55.299Z,16.45
2022-07-25T10:13:35.292Z,16.75
2022-07-25T10:16:16.978Z,16.30
2022-07-25T10:18:52.499Z,17.48
2022-07-25T10:21:27.258Z,17.67
2022-07-25T10:24:04.135Z,17.42
2022-07-25T10:26:39.850Z,17.30
2022-07-25T10:29:11.824Z,17.00
2022-07-25T10:31:50.467Z,18.33
2022-07-25T10:34:31.880Z,17.98
2022-07-25T10:37:11.481Z,16.65
2022-07-25T10:39:42.779Z,17.40
2022-07-25T10:42:16.816Z,19.00
2022-07-25T10:44:49.187Z,17.13
2022-07-25T10:47:19.398Z,18.10
2022-07-25T10:50:13.900Z,18.27
2022-07-25T10:52:43.476Z,17.10
2022-07-25T10:55:23.863Z,17.58
2022-07-25T10:58:17.185Z,16.98
2022-07-25T11:00:47.989Z,16.88
2022-07-25T11:03:18.710Z,17.00
2022-07-25T11:05:49.247Z,16.95
2022-07-25T11:08:22.181Z,17.35
2022-07-25T11:10:53.864Z,17.83
2022-07-25T11:13:26.066Z,18.23
2022-07-25T11:15:58.966Z,16.88
2022-07-25T11:18:36.592Z,18.17
2022-07-25T11:21:08.567Z,18.02
2022-07-25T11:23:38.553Z,16.63
2022-07-25T11:26:10.361Z,16.67
2022-07-25T11:28:45.826Z,15.77
2022-07-25T11:31:17.219Z,17.00
2022-07-25T11:33:50.525Z,16.50
2022-07-25T11:36:21.389Z,16.70
2022-07-25T11:38:51.745Z,16.40
2022-07-25T11:41:29.799Z,15.82
2022-07-25T11:44:01.230Z,15.68
2022-07-25T11:46:31.434Z,16.23
2022-07-25T11:49:08.671Z,16.02
2022-07-25T11:51:39.957Z,17.58
2022-07-25T11:54:11.810Z,15.23
2022-07-25T11:56:43.440Z,15.65
2022-07-25T11:59:15.290Z,17.08
2022-07-25T12:01:45.491Z,15.80
2022-07-25T12:04:18.295Z,16.95
2022-07-25T12:06:50.041Z,19.15
2022-07-25T12:09:22.297Z,16.92
2022-07-25T12:12:03.683Z,16.77
2022-07-25T12:14:44.909Z,16.63
2022-07-25T12:17:15.072Z,16.85
2022-07-25T12:19:47.151Z,15.25
2022-07-25T12:22:17.214Z,16.98
2022-07-25T12:24:47.163Z,15.60
2022-07-25T12:27:17.080Z,15.98
2022-07-25T12:29:49.333Z,18.00
2022-07-25T12:32:19.250Z,18.33
2022-07-25T12:34:49.295Z,18.00
2022-07-25T12:37:21.733Z,16.80
2022-07-25T12:39:51.787Z,16.73
2022-07-25T12:42:21.937Z,15.85
2022-07-25T12:44:53.340Z,16.38
2022-07-25T12:47:23.367Z,16.25
2022-07-25T12:49:53.281Z,15.98
2022-07-25T12:52:23.589Z,17.08
2022-07-25T12:54:53.871Z,15.25
2022-07-25T12:57:24.681Z,16.85
2022-07-25T12:59:56.533Z,16.70
2022-07-25T13:02:26.822Z,16.02
2022-07-25T13:04:56.949Z,15.77
2022-07-25T13:07:27.075Z,15.75
2022-07-25T13:09:57.391Z,14.02
2022-07-25T13:12:28.070Z,15.98
2022-07-25T13:14:59.782Z,16.23
2022-07-25T13:17:29.830Z,16.60
2022-07-25T13:20:00.188Z,15.63
2022-07-25T13:22:30.278Z,16.13
2022-07-25T13:25:00.295Z,17.85
2022-07-25T13:27:30.211Z,15.85
2022-07-25T13:30:01.557Z,16.00
2022-07-25T13:32:31.884Z,13.95
2022-07-25T13:35:02.391Z,15.60
2022-07-25T13:37:33.488Z,15.75
2022-07-25T13:40:03.577Z,15.00
2022-07-25T13:42:33.436Z,15.18
2022-07-25T13:45:04.992Z,14.35
2022-07-25T13:47:35.900Z,16.23
2022-07-25T13:50:06.610Z,14.20
2022-07-25T13:52:37.783Z,15.13
2022-07-25T13:55:10.437Z,14.93
2022-07-25T13:57:40.417Z,15.27
2022-07-25T14:00:13.548Z,15.20
2022-07-25T14:02:44.340Z,14.32
2022-07-25T14:05:14.784Z,14.32
2022-07-25T14:07:44.759Z,17.10
2022-07-25T14:10:14.812Z,22.63
2022-07-25T14:12:45.238Z,20.67
2022-07-25T14:15:17.707Z,16.75
2022-07-25T14:17:48.107Z,18.65
2022-07-25T14:20:18.065Z,12.73
2022-07-25T14:22:48.365Z,14.90
2022-07-25T14:25:18.330Z,14.43
2022-07-25T14:27:49.150Z,13.80
2022-07-25T14:30:20.523Z,11.77
2022-07-25T14:32:50.532Z,11.50
2022-07-25T14:35:20.921Z,15.02
2022-07-25T14:37:50.996Z,17.27
2022-07-25T14:40:20.974Z,25.10
2022-07-25T14:42:50.992Z,16.02
2022-07-25T14:45:23.064Z,13.30
2022-07-25T14:47:54.068Z,15.00
2022-07-25T14:50:24.456Z,13.55
2022-07-25T14:52:54.613Z,15.68
2022-07-25T14:55:25.965Z,21.60
2022-07-25T14:57:58.094Z,23.92
2022-07-25T15:00:30.006Z,13.05
2022-07-25T15:03:00.289Z,15.13
2022-07-25T15:05:30.810Z,16.20
2022-07-25T15:08:01.161Z,14.00
2022-07-25T15:10:31.285Z,11.00
2022-07-25T15:13:29.370Z,10.80
2022-07-25T15:15:54.673Z,12.63
2022-07-25T15:18:24.927Z,11.65
2022-07-25T15:21:05.386Z,11.15
2022-07-25T15:23:35.493Z,11.05
2022-07-25T15:26:06.368Z,11.57
2022-07-25T15:28:39.086Z,11.43
2022-07-25T15:31:10.702Z,12.05
2022-07-25T15:33:41.041Z,9.90
2022-07-25T15:36:11.540Z,10.60
2022-07-25T15:38:41.831Z,13.05
2022-07-25T15:41:12.312Z,16.92
2022-07-25T15:43:42.415Z,25.67
2022-07-25T15:46:18.005Z,29.00
2022-07-25T15:48:48.439Z,18.73
2022-07-25T15:51:19.001Z,23.83
2022-07-25T15:53:49.177Z,22.33
2022-07-25T15:56:19.488Z,14.80
2022-07-25T15:58:50.420Z,21.85
2022-07-25T16:01:22.273Z,14.85
2022-07-25T16:03:52.662Z,13.45
2022-07-25T16:06:23.714Z,13.63
2022-07-25T16:08:54.248Z,14.98
2022-07-25T16:11:24.417Z,15.13
2022-07-25T16:13:55.110Z,14.63
2022-07-25T16:16:27.249Z,17.90
2022-07-25T16:18:58.982Z,38.60
2022-07-25T16:21:29.145Z,43.90
2022-07-25T16:23:59.448Z,50.88
2022-07-25T16:26:29.561Z,45.30
2022-07-25T16:29:02.685Z,37.87
2022-07-25T16:31:35.066Z,31.17
2022-07-25T16:34:05.608Z,19.58
2022-07-25T16:36:36.882Z,22.08
2022-07-25T16:39:07.268Z,15.68
2022-07-25T16:41:37.797Z,14.82
2022-07-25T16:44:07.982Z,12.93
2022-07-25T16:46:39.654Z,14.45
2022-07-25T16:49:10.575Z,15.88
2022-07-25T16:51:41.088Z,15.85
2022-07-25T16:54:11.573Z,32.05
2022-07-25T16:56:42.455Z,23.13
2022-07-25T16:59:12.726Z,25.73
2022-07-25T17:01:46.658Z,19.08
2022-07-25T17:04:16.887Z,21.60
2022-07-25T17:06:49.350Z,14.27
2022-07-25T17:09:19.643Z,15.23
2022-07-25T17:11:50.306Z,12.38
2022-07-25T17:14:22.267Z,13.68
2022-07-25T17:19:25.788Z,11.77
2022-07-25T17:21:56.074Z,11.23
2022-07-25T17:24:26.476Z,11.13
2022-07-25T17:26:56.888Z,10.82
2022-07-25T17:29:27.685Z,11.32
2022-07-25T17:31:59.710Z,11.55
2022-07-25T17:34:30.066Z,10.93
2022-07-25T17:37:03.231Z,11.38
2022-07-25T17:39:34.470Z,10.48
2022-07-25T17:42:07.489Z,11.00
2022-07-25T17:44:37.727Z,10.13
2022-07-25T17:47:09.325Z,10.77
2022-07-25T17:49:39.594Z,11.20
2022-07-25T17:52:12.442Z,11.50
2022-07-25T17:54:42.538Z,10.55
2022-07-25T17:57:12.763Z,11.30
2022-07-25T17:59:42.988Z,12.88
2022-07-25T18:02:14.546Z,11.80
2022-07-25T18:04:45.142Z,12.23
2022-07-25T18:07:15.423Z,10.77
2022-07-25T18:09:45.475Z,11.85
2022-07-25T18:12:15.723Z,14.32
2022-07-25T18:14:49.222Z,13.88
2022-07-25T18:17:21.986Z,16.13
2022-07-25T18:19:52.170Z,28.02
2022-07-25T18:22:22.342Z,17.92
2022-07-25T18:24:52.560Z,13.15
2022-07-25T18:27:22.939Z,17.38
2022-07-25T18:29:53.081Z,14.80
2022-07-25T18:32:24.548Z,15.65
2022-07-25T18:34:54.732Z,12.93
2022-07-25T18:37:25.292Z,13.25
2022-07-25T18:39:55.498Z,13.50
2022-07-25T18:42:29.743Z,23.02
2022-07-25T18:45:00.387Z,20.10
2022-07-25T18:47:33.941Z,19.63
2022-07-25T18:52:36.472Z,12.68
2022-07-25T18:55:09.123Z,19.10
2022-07-25T18:57:39.548Z,11.25
2022-07-25T19:00:12.034Z,10.70
2022-07-25T19:02:43.607Z,11.98
2022-07-25T19:05:13.957Z,10.52
2022-07-25T19:07:45.041Z,11.02
2022-07-25T19:10:15.628Z,10.63
2022-07-25T19:12:46.571Z,12.60
2022-07-25T19:15:18.352Z,10.65
2022-07-25T19:17:49.965Z,10.85
2022-07-25T19:20:22.576Z,10.60
2022-07-25T19:22:53.040Z,9.45
2022-07-25T19:25:23.544Z,10.30
2022-07-25T19:27:54.167Z,10.10
2022-07-25T19:30:24.293Z,10.70
2022-07-25T19:32:55.824Z,9.75
2022-07-25T19:35:26.545Z,9.43
2022-07-25T19:37:56.807Z,9.30
2022-07-25T19:40:26.883Z,11.40
2022-07-25T19:42:57.001Z,9.55
2022-07-25T19:45:27.046Z,10.18
2022-07-25T19:47:58.589Z,9.73
2022-07-25T19:50:29.077Z,10.60
2022-07-25T19:52:59.191Z,9.77
2022-07-25T19:55:29.399Z,10.38
2022-07-25T19:57:59.583Z,9.35
2022-07-25T20:00:29.919Z,10.30
2022-07-25T20:03:01.637Z,10.15
2022-07-25T20:05:32.256Z,9.50
2022-07-25T20:08:02.713Z,9.95
2022-07-25T20:10:32.891Z,10.90
2022-07-25T20:13:03.804Z,10.07
2022-07-25T20:15:34.504Z,9.40
2022-07-25T20:18:06.034Z,9.55
2022-07-25T20:20:36.341Z,9.80
2022-07-25T20:23:06.387Z,9.27
2022-07-25T20:25:37.648Z,9.60
2022-07-25T20:28:08.163Z,11.43
2022-07-25T20:30:38.367Z,9.65
2022-07-25T20:33:10.167Z,9.43
2022-07-25T20:35:40.337Z,8.98
2022-07-25T20:38:11.013Z,9.88
2022-07-25T20:40:46.273Z,10.10
2022-07-25T20:43:16.646Z,10.23
2022-07-25T20:45:48.005Z,10.57
2022-07-25T20:48:19.618Z,10.35
2022-07-25T20:50:49.999Z,9.77
2022-07-25T20:53:20.383Z,10.40
2022-07-25T20:55:50.879Z,10.15
2022-07-25T20:58:21.444Z,10.00
2022-07-25T21:00:51.568Z,9.70
2022-07-25T21:03:25.758Z,10.15
2022-07-25T21:05:55.980Z,10.18
2022-07-25T21:08:26.213Z,10.55
2022-07-25T21:10:56.347Z,9.93
2022-07-25T21:13:26.922Z,9.57
2022-07-25T21:16:01.376Z,9.63
2022-07-25T21:18:32.881Z,10.07
2022-07-25T21:21:03.248Z,9.75
2022-07-25T21:23:33.558Z,9.52
2022-07-25T21:26:04.756Z,10.02
2022-07-25T21:28:35.109Z,10.32
2022-07-25T21:31:05.181Z,10.07
2022-07-25T21:33:36.638Z,10.27
2022-07-25T21:36:07.580Z,10.82
2022-07-25T21:38:38.597Z,10.52
2022-07-25T21:41:09.495Z,10.07
2022-07-25T21:43:39.586Z,10.13
2022-07-25T21:46:09.710Z,10.15
2022-07-25T21:48:58.493Z,9.50
2022-07-25T21:51:38.186Z,10.23
2022-07-25T21:56:43.257Z,9.70
2022-07-25T21:59:13.641Z,10.40
2022-07-25T22:01:44.379Z,9.68
2022-07-25T22:04:15.918Z,10.85
2022-07-25T22:06:45.818Z,10.30
2022-07-25T22:09:15.915Z,9.85
2022-07-25T22:11:46.929Z,9.93
2022-07-25T22:14:17.767Z,10.18
2022-07-25T22:16:47.996Z,9.35
2022-07-25T22:19:22.329Z,10.20
2022-07-25T22:21:52.935Z,10.27
2022-07-25T22:24:22.859Z,10.68
2022-07-25T22:26:52.751Z,10.25
2022-07-25T22:29:22.745Z,10.55
2022-07-25T22:31:52.932Z,10.57
2022-07-25T22:34:24.409Z,11.23
2022-07-25T22:36:54.434Z,10.27
2022-07-25T22:39:24.909Z,10.25
2022-07-25T22:41:54.827Z,10.25
2022-07-25T22:44:24.963Z,10.27
2022-07-25T22:46:54.823Z,10.85
2022-07-25T22:49:26.316Z,11.27
2022-07-25T22:51:56.256Z,10.05
2022-07-25T22:54:26.791Z,11.20
2022-07-25T22:56:56.714Z,11.27
2022-07-25T22:59:26.889Z,12.05
2022-07-25T23:01:56.849Z,11.40
2022-07-25T23:04:28.237Z,10.93
2022-07-25T23:06:59.055Z,11.00
2022-07-25T23:09:36.055Z,11.55
2022-07-25T23:12:07.511Z,11.38
2022-07-25T23:14:38.428Z,11.38
2022-07-25T23:17:21.027Z,11.57
2022-07-25T23:19:54.467Z,10.85
2022-07-25T23:22:26.783Z,12.27
2022-07-25T23:24:57.196Z,12.60
2022-07-25T23:27:27.939Z,11.73
2022-07-25T23:30:03.878Z,13.15
2022-07-25T23:32:33.921Z,12.65
2022-07-25T23:35:06.033Z,11.63
2022-07-25T23:37:35.953Z,12.20
2022-07-25T23:40:07.391Z,12.00
2022-07-25T23:42:37.219Z,11.63
2022-07-25T23:45:08.230Z,12.27
2022-07-25T23:47:40.605Z,11.43
2022-07-25T23:50:12.646Z,13.32
2022-07-25T23:52:42.515Z,11.77
2022-07-25T23:55:12.386Z,12.90
2022-07-25T23:57:42.234Z,11.00
